createdAt,value
2023-02-23T00:01:30.209Z,94973.91
2023-02-23T00:03:58.726Z,94973.13
2023-02-23T00:06:27.913Z,94974.72
2023-02-23T00:08:55.073Z,94976.06
2023-02-23T00:11:22.559Z,94984.47
2023-02-23T00:13:50.526Z,94982.91
2023-02-23T00:16:21.033Z,94980.75
2023-02-23T00:18:51.316Z,94981.88
2023-02-23T00:21:20.683Z,94975.78
2023-02-23T00:23:50.431Z,94983.97
2023-02-23T00:26:20.871Z,94977.41
2023-02-23T00:28:53.961Z,94981.88
2023-02-23T00:34:54.447Z,94987.28
2023-02-23T00:37:25.394Z,94982.78
2023-02-23T00:39:56.548Z,94982.28
2023-02-23T00:42:24.071Z,94986.94
2023-02-23T00:44:51.943Z,94988.56
2023-02-23T00:47:18.746Z,94981.22
2023-02-23T00:49:45.541Z,94989.56
2023-02-23T00:52:14.807Z,94983.59
2023-02-23T00:54:42.184Z,94980.19
2023-02-23T00:57:08.980Z,94978.59
2023-02-23T00:59:35.766Z,94974.38
2023-02-23T01:02:02.839Z,94980.69
2023-02-23T01:04:29.758Z,94969.94
2023-02-23T01:06:56.478Z,94977.31
2023-02-23T01:09:28.274Z,94972.50
2023-02-23T01:11:57.145Z,94974.91
2023-02-23T01:14:24.494Z,94959.91
2023-02-23T01:16:51.446Z,94968.31
2023-02-23T01:19:18.633Z,94972.03
2023-02-23T01:21:45.780Z,94973.34
2023-02-23T01:24:13.349Z,94983.78
2023-02-23T01:26:43.112Z,94967.03
2023-02-23T01:29:19.914Z,94968.31
2023-02-23T01:31:51.337Z,94964.31
2023-02-23T01:34:19.871Z,94977.97
2023-02-23T01:36:46.565Z,94972.00
2023-02-23T01:39:19.110Z,94978.91
2023-02-23T01:41:46.014Z,94980.06
2023-02-23T01:44:14.713Z,94972.72
2023-02-23T01:46:45.219Z,94975.28
2023-02-23T01:49:17.748Z,94960.09
2023-02-23T01:51:48.935Z,94965.59
2023-02-23T01:54:20.249Z,94969.78
2023-02-23T01:56:58.226Z,94970.22
2023-02-23T01:59:49.738Z,94966.34
2023-02-23T02:02:21.054Z,94967.88
2023-02-23T02:04:52.129Z,94968.47
2023-02-23T02:07:25.023Z,94974.16
2023-02-23T02:10:11.478Z,94972.97
2023-02-23T02:12:44.283Z,94984.03
2023-02-23T02:15:17.304Z,94976.41
2023-02-23T02:18:23.555Z,94971.66
2023-02-23T02:20:56.300Z,94976.03
2023-02-23T02:23:54.469Z,94973.72
2023-02-23T02:26:51.723Z,94978.13
2023-02-23T02:29:37.199Z,94979.59
2023-02-23T02:32:15.880Z,94977.72
2023-02-23T02:35:20.036Z,94977.94
2023-02-23T02:38:12.983Z,94985.00
2023-02-23T02:40:55.392Z,94983.88
2023-02-23T02:43:25.157Z,94979.34
2023-02-23T02:45:53.702Z,94980.13
2023-02-23T02:48:25.694Z,94976.66
2023-02-23T02:50:59.261Z,94968.84
2023-02-23T02:53:41.937Z,94973.81
2023-02-23T02:56:09.973Z,94972.72
2023-02-23T02:58:39.095Z,94958.81
2023-02-23T03:01:31.368Z,94961.78
2023-02-23T03:04:19.449Z,94976.59
2023-02-23T03:07:11.637Z,94968.66
2023-02-23T03:10:17.120Z,94978.81
2023-02-23T03:13:11.444Z,94973.06
2023-02-23T03:16:15.620Z,94974.34
2023-02-23T03:19:27.314Z,94975.34
2023-02-23T03:22:26.328Z,94976.22
2023-02-23T03:25:21.188Z,94983.44
2023-02-23T03:28:12.418Z,94982.06
2023-02-23T03:31:26.662Z,94987.78
2023-02-23T03:34:26.159Z,94990.22
2023-02-23T03:37:23.774Z,94994.03
2023-02-23T03:40:26.267Z,94986.16
2023-02-23T03:43:15.101Z,94986.66
2023-02-23T03:46:05.179Z,94987.41
2023-02-23T03:48:54.789Z,94994.13
2023-02-23T03:51:43.307Z,94994.03
2023-02-23T03:54:35.645Z,95004.50
2023-02-23T03:57:27.567Z,94996.28
2023-02-23T04:00:17.427Z,95004.97
2023-02-23T04:03:06.107Z,95012.84
2023-02-23T04:05:53.937Z,95010.38
2023-02-23T04:08:43.911Z,95007.63
2023-02-23T04:11:53.052Z,95004.22
2023-02-23T04:14:27.565Z,95023.03
2023-02-23T04:16:55.186Z,95018.47
2023-02-23T04:19:21.933Z,95010.81
2023-02-23T04:21:48.927Z,95006.25
2023-02-23T04:24:15.843Z,95011.19
2023-02-23T04:26:42.916Z,95003.28
2023-02-23T04:29:11.703Z,95005.34
2023-02-23T04:31:39.123Z,95004.50
2023-02-23T04:34:06.004Z,95003.44
2023-02-23T04:36:32.861Z,94992.94
2023-02-23T04:38:59.860Z,95016.66
2023-02-23T04:41:26.646Z,95013.78
2023-02-23T04:43:53.434Z,95009.22
2023-02-23T04:46:20.246Z,95019.72
2023-02-23T04:48:47.541Z,95007.09
2023-02-23T04:51:14.315Z,94986.00
2023-02-23T04:53:41.092Z,95010.31
2023-02-23T04:56:08.157Z,95009.78
2023-02-23T04:58:34.993Z,95019.31
2023-02-23T05:01:09.820Z,95015.66
2023-02-23T05:03:36.836Z,95012.81
2023-02-23T05:06:03.811Z,95013.22
2023-02-23T05:08:31.031Z,95003.81
2023-02-23T05:10:57.786Z,95012.84
2023-02-23T05:13:24.886Z,95016.09
2023-02-23T05:15:56.578Z,95016.03
2023-02-23T05:18:25.313Z,95008.38
2023-02-23T05:20:52.862Z,95020.34
2023-02-23T05:23:21.867Z,95025.66
2023-02-23T05:25:48.659Z,95031.19
2023-02-23T05:28:15.505Z,95027.75
2023-02-23T05:30:43.659Z,95023.75
2023-02-23T05:33:10.520Z,95036.97
2023-02-23T05:35:41.196Z,95036.03
2023-02-23T05:38:08.075Z,95036.81
2023-02-23T05:40:35.086Z,95032.69
2023-02-23T05:43:01.924Z,95036.81
2023-02-23T05:45:28.593Z,95044.91
2023-02-23T05:47:57.485Z,95046.59
2023-02-23T05:50:24.240Z,95043.09
2023-02-23T05:52:51.401Z,95042.91
2023-02-23T05:55:18.209Z,95059.06
2023-02-23T05:57:45.660Z,95060.44
2023-02-23T06:00:15.930Z,95062.25
2023-02-23T06:02:44.361Z,95057.75
2023-02-23T06:05:14.121Z,95059.63
2023-02-23T06:07:41.077Z,95060.66
2023-02-23T06:10:08.570Z,95061.34
2023-02-23T06:12:35.540Z,95074.22
2023-02-23T06:15:02.228Z,95077.44
2023-02-23T06:17:29.048Z,95074.47
2023-02-23T06:19:55.854Z,95071.25
2023-02-23T06:22:23.128Z,95069.53
2023-02-23T06:24:50.877Z,95079.56
2023-02-23T06:27:17.628Z,95076.38
2023-02-23T06:29:44.632Z,95086.44
2023-02-23T06:32:11.772Z,95087.66
2023-02-23T06:34:45.739Z,95083.19
2023-02-23T06:37:12.884Z,95089.06
2023-02-23T06:39:39.601Z,95080.09
2023-02-23T06:42:06.348Z,95086.19
2023-02-23T06:44:35.461Z,95088.03
2023-02-23T06:47:05.805Z,95087.66
2023-02-23T06:49:32.664Z,95078.16
2023-02-23T06:51:59.577Z,95089.50
2023-02-23T06:54:26.569Z,95090.75
2023-02-23T06:56:55.699Z,95084.28
2023-02-23T06:59:24.081Z,95095.69
2023-02-23T07:01:52.323Z,95090.66
2023-02-23T07:04:19.169Z,95089.38
2023-02-23T07:06:46.980Z,95091.47
2023-02-23T07:09:15.535Z,95089.47
2023-02-23T07:11:44.858Z,95082.63
2023-02-23T07:14:15.354Z,95092.75
2023-02-23T07:16:48.385Z,95085.50
2023-02-23T07:19:15.172Z,95094.47
2023-02-23T07:21:42.002Z,95085.97
2023-02-23T07:24:09.048Z,95085.00
2023-02-23T07:26:36.171Z,95088.41
2023-02-23T07:29:03.534Z,95093.06
2023-02-23T07:31:30.434Z,95087.25
2023-02-23T07:33:57.094Z,95084.75
2023-02-23T07:36:24.583Z,95064.09
2023-02-23T07:38:51.301Z,95073.81
2023-02-23T07:41:18.471Z,95072.00
2023-02-23T07:43:45.493Z,95075.41
2023-02-23T07:46:13.575Z,95067.84
2023-02-23T07:48:42.234Z,95067.00
2023-02-23T07:51:11.901Z,95070.97
2023-02-23T07:53:40.150Z,95064.94
2023-02-23T07:56:10.885Z,95063.88
2023-02-23T07:58:39.350Z,95048.34
2023-02-23T08:01:06.514Z,95067.25
2023-02-23T08:03:33.374Z,95054.84
2023-02-23T08:06:00.319Z,95059.63
2023-02-23T08:08:27.842Z,95055.28
2023-02-23T08:11:02.113Z,95043.97
2023-02-23T08:13:29.950Z,95055.59
2023-02-23T08:15:56.992Z,95051.06
2023-02-23T08:18:24.300Z,95046.81
2023-02-23T08:20:51.239Z,95048.97
2023-02-23T08:23:18.257Z,95042.66
2023-02-23T08:25:45.262Z,95054.47
2023-02-23T08:28:12.581Z,95055.75
2023-02-23T08:30:41.499Z,95052.44
2023-02-23T08:33:08.362Z,95049.81
2023-02-23T08:35:35.260Z,95044.34
2023-02-23T08:38:02.045Z,95043.97
2023-02-23T08:40:28.948Z,95040.91
2023-02-23T08:42:55.791Z,95032.41
2023-02-23T08:45:22.626Z,95032.59
2023-02-23T08:47:49.413Z,95030.75
2023-02-23T08:50:16.306Z,95036.69
2023-02-23T08:52:43.329Z,95040.06
2023-02-23T08:55:11.806Z,95038.97
2023-02-23T08:57:38.908Z,95030.81
2023-02-23T09:00:14.327Z,95031.59
2023-02-23T09:02:42.315Z,95029.69
2023-02-23T09:05:09.763Z,95021.91
2023-02-23T09:07:38.627Z,95035.25
2023-02-23T09:10:05.813Z,95033.03
2023-02-23T09:12:32.753Z,95028.03
2023-02-23T09:14:59.497Z,95019.38
2023-02-23T09:17:26.407Z,95026.41
2023-02-23T09:19:53.277Z,95029.59
2023-02-23T09:22:20.105Z,95027.47
2023-02-23T09:24:46.926Z,95024.34
2023-02-23T09:27:14.788Z,95019.59
2023-02-23T09:29:44.556Z,95003.09
2023-02-23T09:32:12.165Z,95018.84
2023-02-23T09:34:39.103Z,95018.13
2023-02-23T09:37:05.994Z,95017.81
2023-02-23T09:39:38.505Z,95010.56
2023-02-23T09:42:28.644Z,95016.94
2023-02-23T09:45:31.449Z,95019.78
2023-02-23T09:48:04.403Z,95011.53
2023-02-23T09:50:34.936Z,95011.34
2023-02-23T09:53:27.167Z,95006.00
2023-02-23T09:55:57.438Z,95009.59
2023-02-23T09:58:25.557Z,95003.81
2023-02-23T10:01:14.284Z,94999.88
2023-02-23T10:03:52.702Z,94978.75
2023-02-23T10:06:21.098Z,94986.94
2023-02-23T10:09:28.940Z,94992.88
2023-02-23T10:12:08.121Z,94994.13
2023-02-23T10:14:56.312Z,94994.75
2023-02-23T10:17:40.459Z,94985.56
2023-02-23T10:20:40.671Z,94970.06
2023-02-23T10:23:15.279Z,94981.88
2023-02-23T10:25:47.156Z,94968.75
2023-02-23T10:28:21.554Z,94959.06
2023-02-23T10:30:50.845Z,94966.72
2023-02-23T10:33:32.723Z,94961.53
2023-02-23T10:36:13.784Z,94964.84
2023-02-23T10:38:41.274Z,94948.69
2023-02-23T10:41:09.836Z,94955.34
2023-02-23T10:43:37.038Z,94948.38
2023-02-23T10:46:06.306Z,94940.31
2023-02-23T10:48:43.191Z,94940.50
2023-02-23T10:51:25.266Z,94943.19
2023-02-23T10:53:53.017Z,94945.25
2023-02-23T10:56:22.130Z,94942.44
2023-02-23T10:58:55.148Z,94943.41
2023-02-23T11:02:00.420Z,94932.31
2023-02-23T11:04:31.423Z,94924.16
2023-02-23T11:07:22.657Z,94925.97
2023-02-23T11:09:51.619Z,94924.06
2023-02-23T11:12:24.072Z,94916.56
2023-02-23T11:14:53.751Z,94915.22
2023-02-23T11:17:38.958Z,94901.75
2023-02-23T11:20:29.134Z,94915.47
2023-02-23T11:23:03.624Z,94905.03
2023-02-23T11:25:37.637Z,94899.56
2023-02-23T11:28:04.578Z,94891.34
2023-02-23T11:30:37.561Z,94885.16
2023-02-23T11:33:12.361Z,94897.31
2023-02-23T11:35:39.258Z,94887.63
2023-02-23T11:38:35.141Z,94889.75
2023-02-23T11:41:04.899Z,94884.25
2023-02-23T11:43:31.806Z,94883.66
2023-02-23T11:46:01.056Z,94867.91
2023-02-23T11:48:52.796Z,94878.94
2023-02-23T11:51:27.400Z,94880.69
2023-02-23T11:53:55.272Z,94870.00
2023-02-23T11:56:25.620Z,94877.88
2023-02-23T11:59:18.298Z,94867.84
2023-02-23T12:01:52.556Z,94866.00
2023-02-23T12:04:29.542Z,94870.81
2023-02-23T12:07:43.128Z,94867.22
2023-02-23T12:10:43.284Z,94862.22
2023-02-23T12:13:27.808Z,94865.63
2023-02-23T12:16:04.726Z,94866.56
2023-02-23T12:18:53.197Z,94864.13
2023-02-23T12:21:32.118Z,94858.56
2023-02-23T12:24:11.153Z,94857.88
2023-02-23T12:26:51.290Z,94851.97
2023-02-23T12:29:30.341Z,94847.97
2023-02-23T12:32:12.918Z,94851.00
2023-02-23T12:34:45.239Z,94850.09
2023-02-23T12:37:29.144Z,94846.63
2023-02-23T12:40:10.639Z,94849.75
2023-02-23T12:42:46.597Z,94845.16
2023-02-23T12:45:38.654Z,94846.78
2023-02-23T12:48:31.498Z,94844.84
2023-02-23T12:51:01.719Z,94851.75
2023-02-23T12:53:37.294Z,94848.06
2023-02-23T12:56:04.507Z,94848.19
2023-02-23T12:58:46.432Z,94831.88
2023-02-23T13:01:26.938Z,94845.31
2023-02-23T13:04:24.135Z,94845.19
2023-02-23T13:07:05.281Z,94831.59
2023-02-23T13:09:55.720Z,94837.41
2023-02-23T13:12:36.248Z,94823.13
2023-02-23T13:15:30.365Z,94830.50
2023-02-23T13:18:09.993Z,94829.38
2023-02-23T13:20:47.939Z,94823.13
2023-02-23T13:23:34.609Z,94829.47
2023-02-23T13:26:01.527Z,94834.25
2023-02-23T13:29:02.664Z,94824.38
2023-02-23T13:31:35.115Z,94819.16
2023-02-23T13:34:05.366Z,94834.72
2023-02-23T13:36:34.494Z,94825.16
2023-02-23T13:39:20.114Z,94824.47
2023-02-23T13:42:28.067Z,94822.03
2023-02-23T13:44:54.873Z,94827.97
2023-02-23T13:48:03.384Z,94821.34
2023-02-23T13:50:34.698Z,94833.31
2023-02-23T13:53:05.970Z,94838.88
2023-02-23T13:55:51.262Z,94838.41
2023-02-23T13:58:25.441Z,94831.59
2023-02-23T14:01:24.887Z,94834.25
2023-02-23T14:03:57.988Z,94840.31
2023-02-23T14:06:27.939Z,94821.50
2023-02-23T14:09:10.715Z,94827.59
2023-02-23T14:11:49.163Z,94822.25
2023-02-23T14:14:36.475Z,94833.69
2023-02-23T14:17:16.313Z,94833.44
2023-02-23T14:19:44.233Z,94838.88
2023-02-23T14:22:18.508Z,94839.94
2023-02-23T14:24:46.494Z,94836.53
2023-02-23T14:27:41.372Z,94848.13
2023-02-23T14:30:11.883Z,94842.81
2023-02-23T14:32:49.495Z,94841.19
2023-02-23T14:35:34.456Z,94841.50
2023-02-23T14:38:05.268Z,94850.38
2023-02-23T14:40:34.859Z,94842.06
2023-02-23T14:43:04.311Z,94850.31
2023-02-23T14:45:36.457Z,94852.50
2023-02-23T14:48:07.649Z,94852.94
2023-02-23T14:50:37.570Z,94857.53
2023-02-23T14:53:08.568Z,94846.88
2023-02-23T14:55:36.749Z,94856.72
2023-02-23T14:58:19.561Z,94863.00
2023-02-23T15:00:49.080Z,94864.56
2023-02-23T15:03:15.875Z,94853.16
2023-02-23T15:05:52.645Z,94866.13
2023-02-23T15:08:24.312Z,94883.16
2023-02-23T15:11:10.141Z,94884.25
2023-02-23T15:13:40.840Z,94884.47
2023-02-23T15:16:19.907Z,94890.81
2023-02-23T15:18:48.018Z,94881.44
2023-02-23T15:21:21.541Z,94877.50
2023-02-23T15:23:53.088Z,94895.47
2023-02-23T15:26:33.678Z,94891.69
2023-02-23T15:29:21.568Z,94904.13
2023-02-23T15:31:53.884Z,94904.69
2023-02-23T15:34:28.123Z,94915.81
2023-02-23T15:37:04.694Z,94922.06
2023-02-23T15:39:49.155Z,94914.25
2023-02-23T15:42:40.322Z,94926.63
2023-02-23T15:45:31.947Z,94929.44
2023-02-23T15:48:03.222Z,94946.38
2023-02-23T15:50:40.368Z,94941.19
2023-02-23T15:53:19.666Z,94954.75
2023-02-23T15:55:48.066Z,94946.75
2023-02-23T15:58:26.125Z,94955.19
2023-02-23T16:01:00.047Z,94965.25
2023-02-23T16:03:34.442Z,94961.94
2023-02-23T16:06:08.620Z,94961.31
2023-02-23T16:08:36.982Z,94973.72
2023-02-23T16:11:12.609Z,94964.50
2023-02-23T16:13:44.575Z,94969.50
2023-02-23T16:16:19.361Z,94975.84
2023-02-23T16:18:51.503Z,94980.34
2023-02-23T16:21:23.774Z,94970.75
2023-02-23T16:23:53.650Z,94975.22
2023-02-23T16:26:26.912Z,94987.22
2023-02-23T16:29:02.235Z,94994.81
2023-02-23T16:31:47.903Z,94995.41
2023-02-23T16:34:35.749Z,94989.34
2023-02-23T16:37:15.766Z,95006.03
2023-02-23T16:39:42.592Z,94998.16
2023-02-23T16:42:17.410Z,95008.34
2023-02-23T16:44:47.206Z,94995.91
2023-02-23T16:47:23.105Z,95016.81
2023-02-23T16:49:53.096Z,95024.19
2023-02-23T16:52:23.417Z,95015.78
2023-02-23T16:54:53.858Z,95012.00
2023-02-23T16:57:27.171Z,95032.66
2023-02-23T16:59:55.086Z,95033.91
2023-02-23T17:02:24.855Z,95030.97
2023-02-23T17:04:52.912Z,95032.41
2023-02-23T17:07:23.159Z,95018.88
2023-02-23T17:09:50.922Z,95040.16
2023-02-23T17:12:21.817Z,95040.69
2023-02-23T17:14:50.156Z,95031.81
2023-02-23T17:17:18.969Z,95050.06
2023-02-23T17:19:48.100Z,95043.59
2023-02-23T17:22:15.253Z,95047.34
2023-02-23T17:24:43.114Z,95055.75
2023-02-23T17:27:11.681Z,95047.75
2023-02-23T17:29:38.746Z,95054.63
2023-02-23T17:32:06.054Z,95059.00
2023-02-23T17:34:32.995Z,95060.94
2023-02-23T17:36:59.689Z,95053.81
2023-02-23T17:39:28.934Z,95064.22
2023-02-23T17:41:56.042Z,95059.34
2023-02-23T17:44:23.049Z,95062.38
2023-02-23T17:46:49.867Z,95062.50
2023-02-23T17:49:16.842Z,95068.31
2023-02-23T17:51:43.700Z,95057.81
2023-02-23T17:54:10.769Z,95061.13
2023-02-23T17:56:37.721Z,95068.09
2023-02-23T17:59:04.531Z,95067.16
2023-02-23T18:01:31.352Z,95076.44
2023-02-23T18:03:59.286Z,95060.09
2023-02-23T18:06:26.038Z,95062.19
2023-02-23T18:08:52.960Z,95076.84
2023-02-23T18:11:19.892Z,95067.38
2023-02-23T18:13:48.043Z,95064.41
2023-02-23T18:16:16.264Z,95061.88
2023-02-23T18:18:46.426Z,95069.13
2023-02-23T18:21:19.623Z,95082.06
2023-02-23T18:23:47.028Z,95078.97
2023-02-23T18:26:17.474Z,95075.72
2023-02-23T18:28:45.872Z,95082.09
2023-02-23T18:31:14.508Z,95091.25
2023-02-23T18:33:41.803Z,95074.78
2023-02-23T18:36:23.809Z,95080.16
2023-02-23T18:38:51.122Z,95084.31
2023-02-23T18:41:19.774Z,95090.25
2023-02-23T18:43:47.326Z,95085.28
2023-02-23T18:46:14.596Z,95096.22
2023-02-23T18:48:42.191Z,95083.16
2023-02-23T18:51:14.255Z,95093.75
2023-02-23T18:53:42.264Z,95107.97
2023-02-23T18:56:15.243Z,95103.91
2023-02-23T18:58:44.616Z,95106.50
2023-02-23T19:01:23.477Z,95108.47
2023-02-23T19:03:52.515Z,95097.66
2023-02-23T19:06:22.688Z,95115.59
2023-02-23T19:08:54.064Z,95107.53
2023-02-23T19:11:32.954Z,95109.09
2023-02-23T19:14:03.622Z,95117.50
2023-02-23T19:16:31.954Z,95122.28
2023-02-23T19:19:00.000Z,95130.94
2023-02-23T19:21:27.745Z,95123.81
2023-02-23T19:23:59.529Z,95122.78
2023-02-23T19:26:27.158Z,95139.63
2023-02-23T19:28:53.896Z,95131.47
2023-02-23T19:31:22.854Z,95128.84
2023-02-23T19:33:50.599Z,95125.94
2023-02-23T19:36:20.276Z,95150.16
2023-02-23T19:38:48.862Z,95139.59
2023-02-23T19:41:19.181Z,95131.72
2023-02-23T19:43:46.818Z,95138.31
2023-02-23T19:46:17.307Z,95148.00
2023-02-23T19:48:51.955Z,95159.63
2023-02-23T19:51:19.584Z,95151.72
2023-02-23T19:53:46.820Z,95156.47
2023-02-23T19:56:16.629Z,95142.28
2023-02-23T19:58:46.660Z,95146.97
2023-02-23T20:01:17.018Z,95143.81
2023-02-23T20:03:45.189Z,95163.56
2023-02-23T20:06:14.189Z,95162.22
2023-02-23T20:08:43.303Z,95162.22
2023-02-23T20:11:11.106Z,95167.50
2023-02-23T20:13:39.151Z,95172.22
2023-02-23T20:16:11.622Z,95170.66
2023-02-23T20:18:40.586Z,95167.25
2023-02-23T20:21:19.549Z,95168.28
2023-02-23T20:23:47.480Z,95171.44
2023-02-23T20:26:18.405Z,95157.75
2023-02-23T20:28:45.726Z,95149.09
2023-02-23T20:31:22.947Z,95166.44
2023-02-23T20:33:50.292Z,95149.59
2023-02-23T20:36:18.126Z,95160.09
2023-02-23T20:38:45.226Z,95162.22
2023-02-23T20:41:12.216Z,95157.50
2023-02-23T20:43:39.480Z,95164.31
2023-02-23T20:46:06.749Z,95154.78
2023-02-23T20:48:34.921Z,95160.38
2023-02-23T20:51:02.351Z,95160.91
2023-02-23T20:53:29.714Z,95155.91
2023-02-23T20:55:56.729Z,95153.78
2023-02-23T20:58:26.384Z,95159.56
2023-02-23T21:00:57.171Z,95154.38
2023-02-23T21:03:25.332Z,95163.28
2023-02-23T21:05:52.431Z,95161.41
2023-02-23T21:08:20.639Z,95157.50
2023-02-23T21:10:48.795Z,95168.53
2023-02-23T21:13:16.572Z,95165.41
2023-02-23T21:15:44.169Z,95154.88
2023-02-23T21:18:11.865Z,95164.31
2023-02-23T21:20:39.757Z,95156.16
2023-02-23T21:23:07.559Z,95146.72
2023-02-23T21:25:34.382Z,95150.97
2023-02-23T21:28:01.945Z,95154.34
2023-02-23T21:30:29.745Z,95153.03
2023-02-23T21:32:57.477Z,95159.34
2023-02-23T21:35:25.068Z,95149.84
2023-02-23T21:37:52.391Z,95163.25
2023-02-23T21:40:21.225Z,95164.31
2023-02-23T21:42:49.656Z,95168.00
2023-02-23T21:45:17.445Z,95156.94
2023-02-23T21:47:46.378Z,95159.06
2023-02-23T21:50:16.451Z,95164.34
2023-02-23T21:52:45.314Z,95173.31
2023-02-23T21:55:21.144Z,95170.63
2023-02-23T21:57:49.362Z,95168.03
2023-02-23T22:00:16.632Z,95161.69
2023-02-23T22:02:46.792Z,95163.28
2023-02-23T22:05:15.602Z,95164.34
2023-02-23T22:07:48.805Z,95166.94
2023-02-23T22:10:17.234Z,95166.38
2023-02-23T22:12:43.982Z,95167.97
2023-02-23T22:15:11.335Z,95168.25
2023-02-23T22:17:38.648Z,95156.19
2023-02-23T22:20:07.414Z,95168.56
2023-02-23T22:22:36.237Z,95165.69
2023-02-23T22:25:08.005Z,95170.41
2023-02-23T22:27:34.995Z,95164.88
2023-02-23T22:30:01.895Z,95162.78
2023-02-23T22:32:33.264Z,95170.66
2023-02-23T22:35:01.122Z,95169.59
2023-02-23T22:37:29.923Z,95159.06
2023-02-23T22:40:16.893Z,95162.22
2023-02-23T22:42:48.322Z,95166.66
2023-02-23T22:45:16.217Z,95161.31
2023-02-23T22:47:44.012Z,95160.59
2023-02-23T22:50:13.988Z,95157.72
2023-02-23T22:52:40.802Z,95160.22
2023-02-23T22:55:08.052Z,95152.66
2023-02-23T22:57:35.071Z,95164.25
2023-02-23T23:00:07.099Z,95165.09
2023-02-23T23:02:36.122Z,95162.72
2023-02-23T23:05:02.924Z,95160.81
2023-02-23T23:07:31.118Z,95165.38
2023-02-23T23:09:58.605Z,95169.06
2023-02-23T23:12:27.893Z,95153.81
2023-02-23T23:15:01.342Z,95130.16
2023-02-23T23:17:31.824Z,95162.25
2023-02-23T23:20:00.360Z,95169.06
2023-02-23T23:22:27.630Z,95164.84
2023-02-23T23:24:54.436Z,95159.00
2023-02-23T23:27:21.558Z,95157.84
2023-02-23T23:29:49.077Z,95160.78
2023-02-23T23:32:18.339Z,95150.53
2023-02-23T23:34:48.035Z,95155.31
2023-02-23T23:37:19.400Z,95150.09
2023-02-23T23:39:46.248Z,95151.59
2023-02-23T23:42:13.292Z,95145.28
2023-02-23T23:44:40.119Z,95154.78
2023-02-23T23:47:07.054Z,95143.19
2023-02-23T23:49:37.954Z,95153.25
2023-02-23T23:52:06.040Z,95150.09
2023-02-23T23:54:38.746Z,95139.59
2023-02-23T23:57:06.070Z,95152.75
2023-02-23T23:59:34.826Z,95145.88
